LJMB/MBX METAR and TAF weather

Enter ICAO airport designator
Station Type Date Time Source
LJMB METAR 2018/12/13 06:30 UTC NOAA

LJMB 130630Z VRB01KT 9999 FEW006 BKN035 OVC070 M01/M02 Q1020


Station Type Date Time Source
LJMB Decoded METAR 2018/12/13 06:30 UTC NOAA

Maribor / Slivnica, Slovenia (LJMB) 46-29N 015-41E 265M
Dec 13, 2018 - 01:30 AM EST / 2018.12.13 0630 UTC
Wind: Variable at 1 MPH (1 KT):0
Visibility: greater than 7 mile(s):0
Sky conditions: overcast
Temperature: 30 F (-1 C)
Dew Point: 28 F (-2 C)
Relative Humidity: 92%
Pressure (altimeter): 30.12 in. Hg (1020 hPa)
ob: LJMB 130630Z VRB01KT 9999 FEW006 BKN035 OVC070 M01/M02 Q1020
cycle: 6

Station Type Date Time Source
LJMB TAF 2018/12/13 06:27 UTC NOAA

TAF
AMD LJMB 130616Z 1306/1406 VRB02KT 9999 BKN040
TEMPO 1306/1403 7000 -SN BKN010 OVC030
TEMPO 1318/1406 3500 BR
BECMG 1306/1308 01005KT


Example: see airport list